首页
METAR-TAF:

METAR-TAF

机场 :

Rhinelander-Oneida County Airport

Rhinelander, 威斯康辛州, 美国

纬度: 45-37-54N, 经度: 089-28-56W, 海拔: 495米

当前天气观测

该预报发布于29分钟前的23:53 UTC
风速10节,风向
温度 -1°C
湿度 69%
气压 1014 hPa
能見度: 16.1公里
少量云层高于12000英尺

METAR: KRHI 072353Z AUTO 19010KT 10SM FEW120 M01/M06 A2994 RMK AO2 SLP164 T10111056 11011 21028 58021 $

时间: 18:22 (00:22 UTC)

预报

该预报发布于48分钟前的23:34 UTC
预报有效从08日的 00点(UTC)到 08日的 24点(UTC)
风速10节,风向,有时为17节阵风
能見度: 10公里
阴天层高于12000英尺
从 08日的 0600点(UTC)
风速13节,风向西南,有时为26节阵风
能見度: 10公里
多云层高于4000英尺
从 08日的 1000点(UTC)
风速12节,风向西南,有时为23节阵风
能見度: 10公里
多云层高于1800英尺
从 08日的 1300点(UTC)
风速10节,风向西南,有时为19节阵风
能見度: 10公里
阴天层高于800英尺
从 08日的 1500点(UTC)
风速9节,风向西转西南,有时为15节阵风
能見度: 10公里
多云层高于400英尺
(小) 冻, 毛毛雨

TAF: KRHI 072334Z 0800/0824 19010G17KT P6SM OVC120 WS018/23050KT FM080600 22013G26KT P6SM BKN040 WS018/24055KT FM081000 23012G23KT P6SM BKN018 WS018/25040KT FM081300 23010G19KT P6SM OVC008 FM081500 25009G15KT P6SM -FZDZ BKN004

超过4000个机场的气象观测和天气预报(METAR&TAF报告)。

可查询的气象台以黄色和红色小点在地图上表示。

将鼠标移到小点上方,可查看气象台名称。

然后点击查看天气观测和预报。

如需切换地图:点击带黑十字的绿色按钮放大地图;点击带横线的绿色按钮缩小地图;或者点击绿色箭头查看邻近地区的地图。


METAR-TAF: